createdAt,value
2022-09-23T00:01:00.658Z,34.50
2022-09-23T00:03:30.140Z,29.73
2022-09-23T00:06:02.000Z,30.70
2022-09-23T00:08:29.872Z,33.60
2022-09-23T00:10:57.925Z,36.77
2022-09-23T00:13:26.767Z,38.00
2022-09-23T00:15:54.235Z,37.00
2022-09-23T00:18:21.801Z,36.23
2022-09-23T00:20:49.445Z,33.03
2022-09-23T00:23:16.958Z,39.23
2022-09-23T00:25:44.453Z,36.47
2022-09-23T00:28:11.943Z,39.37
2022-09-23T00:30:44.691Z,33.80
2022-09-23T00:33:12.208Z,31.83
2022-09-23T00:35:39.690Z,41.07
2022-09-23T00:38:07.136Z,33.30
2022-09-23T00:40:36.210Z,35.83
2022-09-23T00:43:03.694Z,46.73
2022-09-23T00:45:32.293Z,40.23
2022-09-23T00:48:04.999Z,37.00
2022-09-23T00:50:36.062Z,37.20
2022-09-23T00:53:07.869Z,31.80
2022-09-23T00:55:39.331Z,35.30
2022-09-23T00:58:11.039Z,34.83
2022-09-23T01:00:38.942Z,28.90
2022-09-23T01:03:09.382Z,33.37
2022-09-23T01:05:38.520Z,31.70
2022-09-23T01:08:06.584Z,37.57
2022-09-23T01:10:41.949Z,38.10
2022-09-23T01:13:18.252Z,43.30
2022-09-23T01:15:50.292Z,46.07
2022-09-23T01:18:29.661Z,53.97
2022-09-23T01:21:03.502Z,47.17
2022-09-23T01:23:55.108Z,51.13
2022-09-23T01:26:42.839Z,42.60
2022-09-23T01:29:29.782Z,41.97
2022-09-23T01:32:03.037Z,46.43
2022-09-23T01:34:36.935Z,47.33
2022-09-23T01:37:12.022Z,42.70
2022-09-23T01:39:45.359Z,43.77
2022-09-23T01:42:18.639Z,49.27
2022-09-23T01:44:49.538Z,51.07
2022-09-23T01:47:23.707Z,53.07
2022-09-23T01:49:56.016Z,53.17
2022-09-23T01:52:29.287Z,48.83
2022-09-23T01:55:02.104Z,47.67
2022-09-23T01:57:33.282Z,45.27
2022-09-23T02:00:11.149Z,45.53
2022-09-23T02:02:49.855Z,45.10
2022-09-23T02:05:23.008Z,46.50
2022-09-23T02:07:54.277Z,44.47
2022-09-23T02:10:26.358Z,44.83
2022-09-23T02:12:59.095Z,45.83
2022-09-23T02:15:33.716Z,46.17
2022-09-23T02:18:08.682Z,46.77
2022-09-23T02:20:39.718Z,50.93
2022-09-23T02:23:13.036Z,45.03
2022-09-23T02:25:55.983Z,45.10
2022-09-23T02:28:31.908Z,36.33
2022-09-23T02:31:08.518Z,42.63
2022-09-23T02:33:40.216Z,41.57
2022-09-23T02:36:13.435Z,40.80
2022-09-23T02:38:46.351Z,50.40
2022-09-23T02:41:18.307Z,41.03
2022-09-23T02:43:52.227Z,44.03
2022-09-23T02:46:20.295Z,38.13
2022-09-23T02:48:55.041Z,38.83
2022-09-23T02:51:25.297Z,44.20
2022-09-23T02:53:55.688Z,41.40
2022-09-23T02:56:23.362Z,42.33
2022-09-23T02:58:54.057Z,42.87
2022-09-23T03:01:34.988Z,46.83
2022-09-23T03:04:14.703Z,43.27
2022-09-23T03:06:51.912Z,41.60
2022-09-23T03:09:23.283Z,42.07
2022-09-23T03:11:56.831Z,43.17
2022-09-23T03:14:31.679Z,35.20
2022-09-23T03:17:04.201Z,44.93
2022-09-23T03:19:41.358Z,34.10
2022-09-23T03:22:13.337Z,36.10
2022-09-23T03:24:44.758Z,43.07
2022-09-23T03:27:17.732Z,40.00
2022-09-23T03:29:47.656Z,40.00
2022-09-23T03:32:18.255Z,50.20
2022-09-23T03:34:50.337Z,42.73
2022-09-23T03:37:22.564Z,44.07
2022-09-23T03:39:55.068Z,71.70
2022-09-23T03:42:25.935Z,52.43
2022-09-23T03:44:56.367Z,42.43
2022-09-23T03:47:26.261Z,48.67
2022-09-23T03:49:56.700Z,75.83
2022-09-23T03:52:25.544Z,51.77
2022-09-23T03:54:53.439Z,51.50
2022-09-23T03:57:22.433Z,50.87
2022-09-23T03:59:50.473Z,43.37
2022-09-23T04:02:18.814Z,39.77
2022-09-23T04:04:46.900Z,38.70
2022-09-23T04:07:15.992Z,38.73
2022-09-23T04:09:43.637Z,38.80
2022-09-23T04:12:14.692Z,43.93
2022-09-23T04:14:42.259Z,35.33
2022-09-23T04:17:10.190Z,43.93
2022-09-23T04:19:37.971Z,42.93
2022-09-23T04:22:06.117Z,48.13
2022-09-23T04:24:35.385Z,39.60
2022-09-23T04:27:03.297Z,40.67
2022-09-23T04:29:30.859Z,40.33
2022-09-23T04:31:58.712Z,45.67
2022-09-23T04:34:26.456Z,48.37
2022-09-23T04:36:53.946Z,56.60
2022-09-23T04:39:21.439Z,46.43
2022-09-23T04:41:50.262Z,53.30
2022-09-23T04:44:17.756Z,47.67
2022-09-23T04:46:48.239Z,54.80
2022-09-23T04:49:16.573Z,53.00
2022-09-23T04:51:44.091Z,46.63
2022-09-23T04:54:12.678Z,40.70
2022-09-23T04:56:40.829Z,43.60
2022-09-23T04:59:09.822Z,50.63
2022-09-23T05:01:38.339Z,45.80
2022-09-23T05:04:08.542Z,50.97
2022-09-23T05:06:36.932Z,47.47
2022-09-23T05:09:07.468Z,43.03
2022-09-23T05:11:35.663Z,49.33
2022-09-23T05:14:03.346Z,48.07
2022-09-23T05:16:32.254Z,46.33
2022-09-23T05:18:59.951Z,74.20
2022-09-23T05:21:28.865Z,62.73
2022-09-23T05:24:00.283Z,57.03
2022-09-23T05:26:29.411Z,54.07
2022-09-23T05:28:57.240Z,55.13
2022-09-23T05:31:26.289Z,53.37
2022-09-23T05:33:57.901Z,54.67
2022-09-23T05:36:26.104Z,63.27
2022-09-23T05:38:54.593Z,82.67
2022-09-23T05:41:23.391Z,54.67
2022-09-23T05:43:51.532Z,106.47
2022-09-23T05:46:20.873Z,198.77
2022-09-23T05:48:49.009Z,98.13
2022-09-23T05:51:20.105Z,32.10
2022-09-23T05:53:48.747Z,33.90
2022-09-23T05:56:18.238Z,62.80
2022-09-23T05:58:46.120Z,35.00
2022-09-23T06:01:15.654Z,84.80
2022-09-23T06:03:43.130Z,32.17
2022-09-23T06:06:14.461Z,22.17
2022-09-23T06:08:43.616Z,19.33
2022-09-23T06:11:12.287Z,18.50
2022-09-23T06:13:40.375Z,15.63
2022-09-23T06:16:09.074Z,15.13
2022-09-23T06:18:36.819Z,12.43
2022-09-23T06:21:05.244Z,14.68
2022-09-23T06:23:33.074Z,10.68
2022-09-23T06:26:02.443Z,10.98
2022-09-23T06:28:32.157Z,9.85
2022-09-23T06:31:00.388Z,14.05
2022-09-23T06:33:35.854Z,13.98
2022-09-23T06:36:06.706Z,15.88
2022-09-23T06:38:34.543Z,21.30
2022-09-23T06:41:04.057Z,10.65
2022-09-23T06:43:32.193Z,12.32
2022-09-23T06:46:00.997Z,13.07
2022-09-23T06:48:29.482Z,11.98
2022-09-23T06:51:02.364Z,14.13
2022-09-23T06:53:32.107Z,10.35
2022-09-23T06:56:00.485Z,14.02
2022-09-23T06:58:29.788Z,7.97
2022-09-23T07:01:02.325Z,7.80
2022-09-23T07:03:30.877Z,6.97
2022-09-23T07:05:59.135Z,6.53
2022-09-23T07:08:28.095Z,6.07
2022-09-23T07:10:56.661Z,7.05
2022-09-23T07:13:24.613Z,7.93
2022-09-23T07:15:55.024Z,7.00
2022-09-23T07:18:24.045Z,8.35
2022-09-23T07:20:51.951Z,8.40
2022-09-23T07:23:19.649Z,15.25
2022-09-23T07:25:50.267Z,20.42
2022-09-23T07:28:18.889Z,18.15
2022-09-23T07:30:57.177Z,14.38
2022-09-23T07:33:32.489Z,16.77
2022-09-23T07:36:00.873Z,7.43
2022-09-23T07:38:30.261Z,10.88
2022-09-23T07:41:02.708Z,14.55
2022-09-23T07:43:31.806Z,13.35
2022-09-23T07:46:02.172Z,12.60
2022-09-23T07:48:34.457Z,8.07
2022-09-23T07:51:07.616Z,13.13
2022-09-23T07:53:35.681Z,7.60
2022-09-23T07:56:06.447Z,13.38
2022-09-23T07:58:35.554Z,5.15
2022-09-23T08:01:05.177Z,21.63
2022-09-23T08:03:35.000Z,12.88
2022-09-23T08:06:10.441Z,6.15
2022-09-23T08:08:40.463Z,6.43
2022-09-23T08:11:11.133Z,9.15
2022-09-23T08:13:38.994Z,14.40
2022-09-23T08:16:07.255Z,4.70
2022-09-23T08:18:36.606Z,12.57
2022-09-23T08:21:04.713Z,10.98
2022-09-23T08:23:33.550Z,8.63
2022-09-23T08:26:03.080Z,8.02
2022-09-23T08:28:31.958Z,4.93
2022-09-23T08:30:59.473Z,4.22
2022-09-23T08:33:27.097Z,5.97
2022-09-23T08:36:00.537Z,5.65
2022-09-23T08:38:28.674Z,5.15
2022-09-23T08:41:06.370Z,5.97
2022-09-23T08:43:36.857Z,4.95
2022-09-23T08:46:07.267Z,7.30
2022-09-23T08:48:38.424Z,6.00
2022-09-23T08:51:13.576Z,4.80
2022-09-23T08:53:42.195Z,4.97
2022-09-23T08:56:15.716Z,4.35
2022-09-23T08:58:52.820Z,3.85
2022-09-23T09:01:26.412Z,6.65
2022-09-23T09:03:55.972Z,4.38
2022-09-23T09:06:30.898Z,3.65
2022-09-23T09:09:02.199Z,4.50
2022-09-23T09:11:36.814Z,4.88
2022-09-23T09:14:15.289Z,11.98
2022-09-23T09:16:59.947Z,4.90
2022-09-23T09:19:51.867Z,7.43
2022-09-23T09:22:25.985Z,9.43
2022-09-23T09:24:57.375Z,8.43
2022-09-23T09:27:25.080Z,7.07
2022-09-23T09:29:56.401Z,8.52
2022-09-23T09:32:38.160Z,5.10
2022-09-23T09:35:10.224Z,4.60
2022-09-23T09:37:46.772Z,6.00
2022-09-23T09:40:16.279Z,4.47
2022-09-23T09:42:48.287Z,9.48
2022-09-23T09:45:24.079Z,7.95
2022-09-23T09:48:00.897Z,5.10
2022-09-23T09:50:47.065Z,4.72
2022-09-23T09:53:21.766Z,6.68
2022-09-23T09:56:04.710Z,7.95
2022-09-23T09:58:43.602Z,4.43
2022-09-23T10:01:19.537Z,5.75
2022-09-23T10:03:47.799Z,5.22
2022-09-23T10:06:19.356Z,4.43
2022-09-23T10:09:16.864Z,4.55
2022-09-23T10:12:03.772Z,4.60
2022-09-23T10:14:31.459Z,4.38
2022-09-23T10:17:05.322Z,6.05
2022-09-23T10:19:35.354Z,5.03
2022-09-23T10:22:06.232Z,4.75
2022-09-23T10:24:36.567Z,5.20
2022-09-23T10:27:08.543Z,5.05
2022-09-23T10:29:40.697Z,4.60
2022-09-23T10:32:27.346Z,6.00
2022-09-23T10:34:58.048Z,4.80
2022-09-23T10:37:38.418Z,4.75
2022-09-23T10:40:44.941Z,5.32
2022-09-23T10:43:39.067Z,4.50
2022-09-23T10:46:27.293Z,4.15
2022-09-23T10:49:12.207Z,7.78
2022-09-23T10:51:50.253Z,3.40
2022-09-23T10:54:27.292Z,5.03
2022-09-23T10:56:59.738Z,8.88
2022-09-23T10:59:43.481Z,5.05
2022-09-23T11:02:35.789Z,9.68
2022-09-23T11:05:27.245Z,5.38
2022-09-23T11:08:06.163Z,8.32
2022-09-23T11:10:52.038Z,14.13
2022-09-23T11:13:35.555Z,11.20
2022-09-23T11:16:12.345Z,7.10
2022-09-23T11:19:00.277Z,4.50
2022-09-23T11:21:44.143Z,7.20
2022-09-23T11:24:39.249Z,5.68
2022-09-23T11:27:20.124Z,6.30
2022-09-23T11:30:01.704Z,4.20
2022-09-23T11:32:46.996Z,6.13
2022-09-23T11:35:20.429Z,5.95
2022-09-23T11:37:52.335Z,4.93
2022-09-23T11:40:24.454Z,4.32
2022-09-23T11:42:58.104Z,4.88
2022-09-23T11:45:31.900Z,4.82
2022-09-23T11:48:04.187Z,5.35
2022-09-23T11:50:37.337Z,5.43
2022-09-23T11:53:09.796Z,4.53
2022-09-23T11:55:54.599Z,10.57
2022-09-23T11:58:27.118Z,5.78
2022-09-23T12:01:02.027Z,6.25
2022-09-23T12:03:44.429Z,8.27
2022-09-23T12:06:16.010Z,3.40
2022-09-23T12:08:43.539Z,4.72
2022-09-23T12:11:26.007Z,4.55
2022-09-23T12:14:02.939Z,4.72
2022-09-23T12:16:58.991Z,4.35
2022-09-23T12:20:10.287Z,5.07
2022-09-23T12:22:52.651Z,4.72
2022-09-23T12:25:36.630Z,3.85
2022-09-23T12:28:07.944Z,5.30
2022-09-23T12:30:38.141Z,4.85
2022-09-23T12:33:17.710Z,4.60
2022-09-23T12:35:47.072Z,5.32
2022-09-23T12:38:19.306Z,5.30
2022-09-23T12:40:47.558Z,4.63
2022-09-23T12:43:21.018Z,5.35
2022-09-23T12:45:49.192Z,4.55
2022-09-23T12:48:45.035Z,4.72
2022-09-23T12:51:18.618Z,3.80
2022-09-23T12:53:58.272Z,4.20
2022-09-23T12:56:29.736Z,4.82
2022-09-23T12:59:21.631Z,4.82
2022-09-23T13:01:49.248Z,4.88
2022-09-23T13:04:52.049Z,5.22
2022-09-23T13:07:24.782Z,4.32
2022-09-23T13:09:56.518Z,4.68
2022-09-23T13:12:29.390Z,7.28
2022-09-23T13:15:00.649Z,5.35
2022-09-23T13:17:33.387Z,4.90
2022-09-23T13:20:27.337Z,4.75
2022-09-23T13:23:16.824Z,6.43
2022-09-23T13:25:44.876Z,5.68
2022-09-23T13:28:27.156Z,6.07
2022-09-23T13:30:55.220Z,6.18
2022-09-23T13:33:29.611Z,4.85
2022-09-23T13:36:04.049Z,4.70
2022-09-23T13:38:33.937Z,4.55
2022-09-23T13:41:04.617Z,4.72
2022-09-23T13:43:40.968Z,5.30
2022-09-23T13:46:13.915Z,4.38
2022-09-23T13:48:45.369Z,5.88
2022-09-23T13:51:21.901Z,4.88
2022-09-23T13:53:54.520Z,4.90
2022-09-23T13:56:23.168Z,4.22
2022-09-23T13:58:50.742Z,5.35
2022-09-23T14:01:24.210Z,6.05
2022-09-23T14:03:52.238Z,5.15
2022-09-23T14:06:21.175Z,6.82
2022-09-23T14:08:50.688Z,4.82
2022-09-23T14:11:20.455Z,4.70
2022-09-23T14:13:50.923Z,3.90
2022-09-23T14:16:19.568Z,4.30
2022-09-23T14:18:49.512Z,5.38
2022-09-23T14:21:30.269Z,4.60
2022-09-23T14:23:57.863Z,4.60
2022-09-23T14:26:26.985Z,5.47
2022-09-23T14:28:55.003Z,5.40
2022-09-23T14:31:24.034Z,4.80
2022-09-23T14:33:51.724Z,5.15
2022-09-23T14:36:36.550Z,4.70
2022-09-23T14:39:07.993Z,4.90
2022-09-23T14:41:39.118Z,5.68
2022-09-23T14:44:08.843Z,4.63
2022-09-23T14:46:38.923Z,5.00
2022-09-23T14:49:16.590Z,5.07
2022-09-23T14:51:50.320Z,4.90
2022-09-23T14:54:33.592Z,4.63
2022-09-23T14:57:02.235Z,4.40
2022-09-23T14:59:35.588Z,5.28
2022-09-23T15:02:03.468Z,4.97
2022-09-23T15:04:34.880Z,4.97
2022-09-23T15:07:16.533Z,4.70
2022-09-23T15:09:46.457Z,5.05
2022-09-23T15:12:16.185Z,5.40
2022-09-23T15:14:46.846Z,4.07
2022-09-23T15:17:32.493Z,5.90
2022-09-23T15:20:03.320Z,4.47
2022-09-23T15:22:30.807Z,4.47
2022-09-23T15:25:17.078Z,6.13
2022-09-23T15:27:57.521Z,4.40
2022-09-23T15:30:25.086Z,3.72
2022-09-23T15:32:52.930Z,6.00
2022-09-23T15:35:22.555Z,4.78
2022-09-23T15:37:51.451Z,3.28
2022-09-23T15:40:23.876Z,3.42
2022-09-23T15:42:53.327Z,3.13
2022-09-23T15:45:27.185Z,3.45
2022-09-23T15:47:55.714Z,3.33
2022-09-23T15:50:23.267Z,3.13
2022-09-23T15:52:50.757Z,3.97
2022-09-23T15:55:22.874Z,4.07
2022-09-23T15:57:50.643Z,3.70
2022-09-23T16:00:18.430Z,4.28
2022-09-23T16:02:48.516Z,3.05
2022-09-23T16:05:20.615Z,3.75
2022-09-23T16:07:48.246Z,3.25
2022-09-23T16:10:16.077Z,3.47
2022-09-23T16:12:45.055Z,4.03
2022-09-23T16:15:15.892Z,3.20
2022-09-23T16:17:44.229Z,2.67
2022-09-23T16:20:12.225Z,3.03
2022-09-23T16:22:40.074Z,2.97
2022-09-23T16:25:12.281Z,3.85
2022-09-23T16:27:40.746Z,4.13
2022-09-23T16:30:11.476Z,3.33
2022-09-23T16:32:39.037Z,4.13
2022-09-23T16:35:08.341Z,4.30
2022-09-23T16:37:36.095Z,4.20
2022-09-23T16:40:04.669Z,9.98
2022-09-23T16:42:32.168Z,16.15
2022-09-23T16:44:59.654Z,16.30
2022-09-23T16:47:28.785Z,22.63
2022-09-23T16:49:56.270Z,13.02
2022-09-23T16:52:23.764Z,9.75
2022-09-23T16:54:51.232Z,9.20
2022-09-23T16:57:18.750Z,13.23
2022-09-23T17:00:03.862Z,17.27
2022-09-23T17:03:04.676Z,12.75
2022-09-23T17:05:32.164Z,13.50
2022-09-23T17:08:00.111Z,12.25
2022-09-23T17:10:27.592Z,12.13
2022-09-23T17:12:55.124Z,14.43
2022-09-23T17:15:22.708Z,15.80
2022-09-23T17:17:51.532Z,10.00
2022-09-23T17:20:20.033Z,7.13
2022-09-23T17:22:47.519Z,7.85
2022-09-23T17:25:15.761Z,5.15
2022-09-23T17:27:43.247Z,6.50
2022-09-23T17:30:11.691Z,8.82
2022-09-23T17:32:39.169Z,10.95
2022-09-23T17:35:09.787Z,13.57
2022-09-23T17:37:37.863Z,14.73
2022-09-23T17:40:06.517Z,16.83
2022-09-23T17:42:34.388Z,12.40
2022-09-23T17:45:02.176Z,12.48
2022-09-23T17:47:32.444Z,11.65
2022-09-23T17:50:00.888Z,13.88
2022-09-23T17:52:29.674Z,85.60
2022-09-23T17:54:57.124Z,305.65
2022-09-23T17:57:24.589Z,367.03
2022-09-23T17:59:53.607Z,49.72
2022-09-23T18:02:22.492Z,37.63
2022-09-23T18:04:50.009Z,38.53
2022-09-23T18:07:17.728Z,23.70
2022-09-23T18:09:46.509Z,28.20
2022-09-23T18:12:14.692Z,23.42
2022-09-23T18:14:42.173Z,18.37
2022-09-23T18:17:09.967Z,14.03
2022-09-23T18:19:37.494Z,11.83
2022-09-23T18:22:04.948Z,12.88
2022-09-23T18:24:37.838Z,14.13
2022-09-23T18:27:07.357Z,14.73
2022-09-23T18:29:35.462Z,17.87
2022-09-23T18:32:03.722Z,17.40
2022-09-23T18:34:31.218Z,18.03
2022-09-23T18:36:58.716Z,17.90
2022-09-23T18:39:26.322Z,18.87
2022-09-23T18:41:54.801Z,16.37
2022-09-23T18:44:24.195Z,20.10
2022-09-23T18:46:51.830Z,14.60
2022-09-23T18:49:36.656Z,13.93
2022-09-23T18:52:04.180Z,11.90
2022-09-23T18:54:31.665Z,43.30
2022-09-23T18:56:59.541Z,183.70
2022-09-23T18:59:29.711Z,110.17
2022-09-23T19:01:57.848Z,90.93
2022-09-23T19:04:27.506Z,49.33
2022-09-23T19:06:56.511Z,50.47
2022-09-23T19:09:24.315Z,27.90
2022-09-23T19:11:52.584Z,17.20
2022-09-23T19:14:20.393Z,18.13
2022-09-23T19:16:50.593Z,15.87
2022-09-23T19:19:18.105Z,14.07
2022-09-23T19:21:45.804Z,22.07
2022-09-23T19:24:15.776Z,26.63
2022-09-23T19:26:44.063Z,20.30
2022-09-23T19:29:15.204Z,17.90
2022-09-23T19:31:43.391Z,22.73
2022-09-23T19:34:15.797Z,22.23
2022-09-23T19:36:44.713Z,16.47
2022-09-23T19:39:17.111Z,16.30
2022-09-23T19:41:44.634Z,17.73
2022-09-23T19:44:12.170Z,20.60
2022-09-23T19:46:42.809Z,17.27
2022-09-23T19:49:11.025Z,15.20
2022-09-23T19:51:40.139Z,18.57
2022-09-23T19:54:08.948Z,9.53
2022-09-23T19:56:38.489Z,10.97
2022-09-23T19:59:09.113Z,11.00
2022-09-23T20:01:36.732Z,14.40
2022-09-23T20:04:05.587Z,17.23
2022-09-23T20:06:34.838Z,23.03
2022-09-23T20:09:03.720Z,15.27
2022-09-23T20:11:32.382Z,15.67
2022-09-23T20:14:03.736Z,15.23
2022-09-23T20:16:34.092Z,20.03
2022-09-23T20:19:02.826Z,12.17
2022-09-23T20:21:30.656Z,10.77
2022-09-23T20:23:58.637Z,9.93
2022-09-23T20:26:45.174Z,9.30
2022-09-23T20:29:12.842Z,9.23
2022-09-23T20:31:41.321Z,9.97
2022-09-23T20:34:10.412Z,10.93
2022-09-23T20:36:39.465Z,13.00
2022-09-23T20:39:07.118Z,16.07
2022-09-23T20:41:38.285Z,14.33
2022-09-23T20:44:07.809Z,11.97
2022-09-23T20:46:35.923Z,9.50
2022-09-23T20:49:04.424Z,10.53
2022-09-23T20:51:33.779Z,12.67
2022-09-23T20:54:01.668Z,14.30
2022-09-23T20:56:29.610Z,15.10
2022-09-23T20:59:01.358Z,17.63
2022-09-23T21:01:29.152Z,16.93
2022-09-23T21:03:56.737Z,19.83
2022-09-23T21:06:26.115Z,20.63
2022-09-23T21:08:54.508Z,20.77
2022-09-23T21:11:22.754Z,15.97
2022-09-23T21:13:52.371Z,17.63
2022-09-23T21:16:22.932Z,18.63
2022-09-23T21:18:51.598Z,12.30
2022-09-23T21:21:22.067Z,10.93
2022-09-23T21:23:50.841Z,11.30
2022-09-23T21:26:20.145Z,14.00
2022-09-23T21:28:49.483Z,16.57
2022-09-23T21:31:23.838Z,21.03
2022-09-23T21:33:56.936Z,21.37
2022-09-23T21:36:24.906Z,23.03
2022-09-23T21:38:53.160Z,14.03
2022-09-23T21:41:21.217Z,18.17
2022-09-23T21:43:49.479Z,20.87
2022-09-23T21:46:19.984Z,17.50
2022-09-23T21:48:49.783Z,17.83
2022-09-23T21:51:21.376Z,13.93
2022-09-23T21:53:48.989Z,14.63
2022-09-23T21:56:20.894Z,16.30
2022-09-23T21:58:49.445Z,14.00
2022-09-23T22:01:18.887Z,15.10
2022-09-23T22:03:51.757Z,17.23
2022-09-23T22:06:22.499Z,19.27
2022-09-23T22:08:51.795Z,19.03
2022-09-23T22:11:39.663Z,20.60
2022-09-23T22:14:08.618Z,22.20
2022-09-23T22:16:36.821Z,16.67
2022-09-23T22:19:06.841Z,20.77
2022-09-23T22:21:38.009Z,16.57
2022-09-23T22:24:07.707Z,14.53
2022-09-23T22:26:38.680Z,13.80
2022-09-23T22:29:25.414Z,19.77
2022-09-23T22:32:11.127Z,25.60
2022-09-23T22:34:50.582Z,24.40
2022-09-23T22:37:23.096Z,20.87
2022-09-23T22:39:50.530Z,18.73
2022-09-23T22:42:21.088Z,16.37
2022-09-23T22:44:48.637Z,13.37
2022-09-23T22:47:17.512Z,12.47
2022-09-23T22:49:44.958Z,14.90
2022-09-23T22:52:12.517Z,12.13
2022-09-23T22:54:41.450Z,16.63
2022-09-23T22:57:09.788Z,16.63
2022-09-23T22:59:38.147Z,13.10
2022-09-23T23:02:06.513Z,15.03
2022-09-23T23:04:34.427Z,14.93
2022-09-23T23:07:03.089Z,13.87
2022-09-23T23:09:31.109Z,14.60
2022-09-23T23:11:59.877Z,13.63
2022-09-23T23:14:27.896Z,13.50
2022-09-23T23:16:55.371Z,14.63
2022-09-23T23:19:23.553Z,18.63
2022-09-23T23:21:51.729Z,23.30
2022-09-23T23:24:21.194Z,16.27
2022-09-23T23:26:49.491Z,14.67
2022-09-23T23:29:20.834Z,15.57
2022-09-23T23:31:48.934Z,14.13
2022-09-23T23:34:18.561Z,16.03
2022-09-23T23:36:47.052Z,14.43
2022-09-23T23:39:15.276Z,11.87
2022-09-23T23:41:42.879Z,13.13
2022-09-23T23:44:12.891Z,13.30
2022-09-23T23:46:41.862Z,16.37
2022-09-23T23:49:09.353Z,16.20
2022-09-23T23:51:36.806Z,13.57
2022-09-23T23:54:04.555Z,11.60
2022-09-23T23:56:32.247Z,15.00
2022-09-23T23:59:02.454Z,13.97
